Time;durP1;ratioP1;P1;durP2;ratioP2;P2;SDS_P1;SDS_P2;PMS_P1;PMS_P2;Temp;Humidity;BMP_temperature;BMP_pressure;BME280_temperature;BME280_humidity;BME280_pressure;Samples;Min_cycle;Max_cycle;Signal;HPM_P1;HPM_P2
2022/01/17 00:01:27;;;;;;;35.05;31.33;;;;;;;;;;12682182;28;20043;-77
2022/01/17 00:07:59;;;;;;;29.15;26.35;;;;;;;;;;12697284;28;20042;-78
2022/01/17 00:14:17;;;;;;;28.30;25.60;;;;;;;;;;12661364;28;20204;-77
2022/01/17 00:20:44;;;;;;;;;;;;;;;;;;;;;
2022/01/17 00:26:59;;;;;;;28.17;25.48;;;;;;;;;;12650521;27;20442;-78
2022/01/17 00:33:04;;;;;;;27.15;24.38;;;;;;;;;;12633003;28;20035;-78
2022/01/17 00:39:29;;;;;;;26.63;23.95;;;;;;;;;;12647462;28;20041;-76
2022/01/17 00:46:30;;;;;;;30.05;27.02;;;;;;;;;;12644939;28;20063;-76
2022/01/17 00:52:39;;;;;;;33.15;29.85;;;;;;;;;;12632338;28;20043;-76
2022/01/17 00:58:54;;;;;;;25.55;23.13;;;;;;;;;;12634461;28;20032;-76
2022/01/17 01:05:34;;;;;;;21.38;19.08;;;;;;;;;;12646405;28;20040;-78
2022/01/17 01:11:51;;;;;;;27.83;25.13;;;;;;;;;;12632114;28;20031;-78
2022/01/17 01:18:19;;;;;;;30.70;27.63;;;;;;;;;;12643783;28;20036;-76
2022/01/17 01:32:08;;;;;;;25.13;22.40;;;;;;;;;;12643698;28;20032;-76
2022/01/17 01:39:02;;;;;;;22.02;19.63;;;;;;;;;;12612279;28;20040;-78
2022/01/17 01:45:22;;;;;;;20.33;18.30;;;;;;;;;;12549270;28;20052;-77
2022/01/17 01:51:41;;;;;;;26.90;24.25;;;;;;;;;;12598749;28;20364;-75
2022/01/17 01:59:58;;;;;;;16.33;14.57;;;;;;;;;;12648718;28;20125;-77
2022/01/17 02:06:04;;;;;;;22.85;20.67;;;;;;;;;;12634053;28;20119;-77
2022/01/17 02:12:29;;;;;;;19.52;17.58;;;;;;;;;;12648858;28;20029;-78
2022/01/17 02:18:59;;;;;;;23.75;21.35;;;;;;;;;;12648411;28;20044;-76
2022/01/17 02:26:07;;;;;;;18.73;15.63;;;;;;;;;;12649290;28;20040;-76
2022/01/17 02:32:27;;;;;;;25.95;23.02;;;;;;;;;;12647278;28;20035;-77
2022/01/17 02:38:49;;;;;;;26.70;23.83;;;;;;;;;;12616995;28;20028;-77
2022/01/17 02:51:48;;;;;;;26.58;23.35;;;;;;;;;;12636223;28;20062;-76
2022/01/17 02:58:03;;;;;;;24.08;21.08;;;;;;;;;;12648607;28;20040;-77
2022/01/17 03:04:23;;;;;;;24.42;21.23;;;;;;;;;;12752983;27;20120;-76
2022/01/17 03:12:53;;;;;;;35.60;29.20;;;;;;;;;;12651614;28;20414;-78
2022/01/17 03:19:01;;;;;;;30.15;25.55;;;;;;;;;;12637131;28;20020;-76
2022/01/17 03:25:12;;;;;;;32.03;28.40;;;;;;;;;;12632638;28;20044;-78
2022/01/17 03:31:17;;;;;;;36.60;26.48;;;;;;;;;;12650850;28;20020;-77
2022/01/17 03:37:25;;;;;;;36.10;30.48;;;;;;;;;;12644515;28;20048;-76
2022/01/17 03:43:42;;;;;;;43.13;31.92;;;;;;;;;;12648710;28;20035;-76
2022/01/17 03:49:59;;;;;;;42.13;28.83;;;;;;;;;;12630710;28;20040;-78
2022/01/17 03:56:07;;;;;;;37.65;29.92;;;;;;;;;;12617488;28;20051;-78
2022/01/17 04:02:28;;;;;;;33.33;25.45;;;;;;;;;;12648906;28;20062;-76
2022/01/17 04:08:34;;;;;;;57.42;29.35;;;;;;;;;;12646477;28;20522;-78
2022/01/17 04:14:47;;;;;;;40.15;29.63;;;;;;;;;;12648471;28;20040;-78
2022/01/17 04:20:53;;;;;;;65.25;42.47;;;;;;;;;;12600370;28;20374;-76
2022/01/17 04:27:04;;;;;;;63.35;46.40;;;;;;;;;;12597120;28;20032;-78
2022/01/17 04:33:10;;;;;;;46.97;37.42;;;;;;;;;;12612320;28;20028;-77
2022/01/17 04:39:17;;;;;;;60.05;43.03;;;;;;;;;;12546278;28;20033;-76
2022/01/17 04:45:25;;;;;;;51.58;37.53;;;;;;;;;;12562365;28;20041;-76
2022/01/17 04:51:31;;;;;;;38.85;30.70;;;;;;;;;;12562247;28;20048;-75
2022/01/17 04:57:38;;;;;;;46.03;34.47;;;;;;;;;;12561778;28;20040;-75
2022/01/17 05:03:42;;;;;;;44.47;35.60;;;;;;;;;;12544989;28;20415;-76
2022/01/17 05:09:55;;;;;;;36.47;29.73;;;;;;;;;;12531133;28;20032;-76
2022/01/17 05:16:12;;;;;;;37.35;29.85;;;;;;;;;;12544671;28;20033;-76
2022/01/17 05:22:17;;;;;;;38.78;29.00;;;;;;;;;;12562253;28;20033;-76
2022/01/17 05:28:24;;;;;;;33.45;24.80;;;;;;;;;;12562445;28;20033;-75
2022/01/17 05:34:40;;;;;;;41.70;30.88;;;;;;;;;;12541077;28;20040;-75
2022/01/17 05:40:49;;;;;;;40.47;26.50;;;;;;;;;;12559798;28;20461;-76
2022/01/17 05:46:53;;;;;;;41.75;31.50;;;;;;;;;;12557146;28;20029;-75
2022/01/17 05:52:56;;;;;;;46.15;31.00;;;;;;;;;;12543568;28;20040;-76
2022/01/17 05:59:05;;;;;;;35.15;28.58;;;;;;;;;;12541152;28;20056;-76
2022/01/17 06:05:15;;;;;;;50.40;37.67;;;;;;;;;;12538359;28;20039;-75
2022/01/17 06:11:26;;;;;;;55.58;35.25;;;;;;;;;;12556069;28;20536;-77
2022/01/17 06:17:31;;;;;;;35.97;32.07;;;;;;;;;;12540599;28;20036;-77
2022/01/17 06:23:40;;;;;;;29.15;26.00;;;;;;;;;;12555353;28;20405;-77
2022/01/17 06:29:43;;;;;;;32.03;28.92;;;;;;;;;;12542450;28;20049;-77
2022/01/17 06:35:48;;;;;;;27.13;24.40;;;;;;;;;;12525748;28;20591;-76
2022/01/17 06:41:51;;;;;;;36.38;30.13;;;;;;;;;;12544496;28;20043;-77
2022/01/17 06:47:53;;;;;;;;;;;;;;;;;;12535475;28;20398;-78
2022/01/17 06:53:59;;;;;;;29.25;26.13;;;;;;;;;;12498985;28;19916;-75
2022/01/17 07:00:01;;;;;;;41.47;34.27;;;;;;;;;;12514516;28;20378;-75
2022/01/17 07:06:04;;;;;;;35.77;32.17;;;;;;;;;;12502425;28;20044;-75
2022/01/17 07:12:07;;;;;;;33.83;30.35;;;;;;;;;;12512019;28;20060;-75
2022/01/17 07:18:12;;;;;;;38.13;34.25;;;;;;;;;;12506128;28;20409;-75
2022/01/17 07:24:14;;;;;;;29.35;26.38;;;;;;;;;;12512588;28;20044;-77
2022/01/17 07:30:17;;;;;;;32.78;28.30;;;;;;;;;;12502527;28;20048;-77
2022/01/17 07:36:21;;;;;;;45.92;32.67;;;;;;;;;;12496902;28;20033;-78
2022/01/17 07:42:25;;;;;;;23.35;20.80;;;;;;;;;;12503375;28;20493;-79
2022/01/17 07:49:16;;;;;;;31.20;27.80;;;;;;;;;;12515692;28;20053;-78
2022/01/17 07:54:49;;;;;;;32.13;26.58;;;;;;;;;;12507717;28;20048;-77
2022/01/17 08:00:52;;;;;;;;;;;;;;;;;;12513862;28;20489;-77
2022/01/17 08:06:55;;;;;;;26.30;21.10;;;;;;;;;;12504093;28;19913;-77
2022/01/17 08:12:58;;;;;;;27.50;21.83;;;;;;;;;;12513641;28;20044;-79
2022/01/17 08:19:01;;;;;;;29.48;20.58;;;;;;;;;;12478604;28;20056;-78
2022/01/17 08:25:03;;;;;;;24.37;19.37;;;;;;;;;;12517097;28;20478;-78
2022/01/17 08:31:06;;;;;;;23.23;17.35;;;;;;;;;;12511219;28;20441;-79
2022/01/17 08:37:08;;;;;;;26.70;20.45;;;;;;;;;;12497744;28;20037;-79
2022/01/17 08:43:12;;;;;;;43.13;24.15;;;;;;;;;;12517584;28;20025;-79
2022/01/17 08:49:16;;;;;;;32.28;25.13;;;;;;;;;;12516728;28;20041;-78
2022/01/17 08:55:22;;;;;;;29.75;22.10;;;;;;;;;;12522041;28;20037;-78
2022/01/17 09:01:24;;;;;;;28.85;21.05;;;;;;;;;;12520655;28;20479;-78
2022/01/17 09:07:29;;;;;;;24.73;20.95;;;;;;;;;;12512257;28;20053;-78
2022/01/17 09:13:31;;;;;;;22.00;18.98;;;;;;;;;;12519219;28;20032;-77
2022/01/17 09:19:34;;;;;;;23.17;19.10;;;;;;;;;;12508982;28;20025;-77
2022/01/17 09:25:38;;;;;;;21.00;18.25;;;;;;;;;;12498245;28;20036;-78
2022/01/17 09:31:41;;;;;;;25.33;20.75;;;;;;;;;;12495557;28;20044;-76
2022/01/17 09:37:43;;;;;;;22.35;19.27;;;;;;;;;;12509121;28;20033;-78
2022/01/17 09:43:46;;;;;;;23.65;19.40;;;;;;;;;;12524662;28;20052;-78
2022/01/17 09:49:55;;;;;;;23.98;19.98;;;;;;;;;;12495146;28;20045;-79
2022/01/17 09:56:02;;;;;;;25.60;20.85;;;;;;;;;;12502929;28;20090;-78
2022/01/17 10:02:06;;;;;;;25.75;20.33;;;;;;;;;;12514501;28;20033;-76
2022/01/17 10:08:10;;;;;;;23.20;20.05;;;;;;;;;;12485622;28;20508;-77
2022/01/17 10:14:25;;;;;;;29.98;23.67;;;;;;;;;;12516480;28;20025;-77
2022/01/17 10:20:32;;;;;;;27.25;22.98;;;;;;;;;;12489171;28;20037;-77
2022/01/17 10:39:08;;;;;;;33.08;26.45;;;;;;;;;;12510957;28;20401;-77
2022/01/17 10:45:15;;;;;;;29.02;24.05;;;;;;;;;;12498831;28;20516;-77
2022/01/17 10:51:19;;;;;;;37.30;29.77;;;;;;;;;;12515133;28;20056;-77
2022/01/17 10:57:22;;;;;;;45.13;32.90;;;;;;;;;;12513612;28;20033;-77
2022/01/17 11:03:29;;;;;;;37.58;29.23;;;;;;;;;;12504535;28;20033;-76
2022/01/17 11:09:41;;;;;;;33.13;26.73;;;;;;;;;;12520263;28;20387;-77
2022/01/17 11:15:45;;;;;;;26.95;21.48;;;;;;;;;;12505013;28;20040;-77
2022/01/17 11:21:49;;;;;;;31.77;25.90;;;;;;;;;;12490173;28;20036;-77
2022/01/17 11:27:53;;;;;;;42.90;32.65;;;;;;;;;;12509637;28;20041;-77
2022/01/17 11:33:54;;;;;;;32.10;25.30;;;;;;;;;;12517562;28;20048;-77
2022/01/17 11:39:57;;;;;;;21.65;16.88;;;;;;;;;;12527736;28;20060;-77
2022/01/17 11:45:59;;;;;;;33.63;25.95;;;;;;;;;;12524862;28;20448;-77
2022/01/17 11:52:01;;;;;;;25.83;22.13;;;;;;;;;;12526033;28;20416;-77
2022/01/17 11:58:18;;;;;;;32.50;26.95;;;;;;;;;;12520466;28;20358;-77
2022/01/17 12:04:19;;;;;;;29.83;23.45;;;;;;;;;;12506450;28;20025;-77
2022/01/17 12:10:24;;;;;;;57.15;43.63;;;;;;;;;;12530849;28;20064;-77
2022/01/17 12:16:30;;;;;;;57.67;41.35;;;;;;;;;;12509233;28;20035;-77
2022/01/17 12:22:33;;;;;;;40.63;32.17;;;;;;;;;;12507861;28;20040;-74
2022/01/17 12:28:50;;;;;;;52.17;37.10;;;;;;;;;;12499043;28;20049;-75
2022/01/17 12:34:56;;;;;;;41.90;31.88;;;;;;;;;;12481793;28;20044;-75
2022/01/17 12:40:59;;;;;;;53.50;40.42;;;;;;;;;;12531056;28;20393;-77
2022/01/17 12:47:03;;;;;;;43.65;34.63;;;;;;;;;;12547980;28;20048;-75
2022/01/17 12:53:06;;;;;;;39.80;31.10;;;;;;;;;;12548327;28;20049;-75
2022/01/17 12:59:09;;;;;;;45.92;35.83;;;;;;;;;;12532949;28;20044;-75
2022/01/17 13:05:12;;;;;;;38.97;31.17;;;;;;;;;;12548647;28;20481;-76
2022/01/17 13:11:15;;;;;;;32.53;25.70;;;;;;;;;;12548169;28;20064;-76
2022/01/17 13:17:19;;;;;;;34.28;26.25;;;;;;;;;;12532699;28;20029;-77
2022/01/17 13:23:30;;;;;;;31.23;25.45;;;;;;;;;;12548074;28;20033;-77
2022/01/17 13:29:53;;;;;;;27.17;21.35;;;;;;;;;;12547392;28;20064;-77
2022/01/17 13:35:55;;;;;;;31.80;24.03;;;;;;;;;;12563634;28;20041;-76
2022/01/17 13:42:02;;;;;;;27.90;23.27;;;;;;;;;;12547843;28;20041;-76
2022/01/17 13:48:15;;;;;;;26.20;20.50;;;;;;;;;;12530321;28;20056;-77
2022/01/17 13:54:47;;;;;;;24.63;19.63;;;;;;;;;;12528867;28;20044;-77
2022/01/17 14:00:50;;;;;;;22.85;17.48;;;;;;;;;;12544373;28;20041;-77
2022/01/17 14:06:52;;;;;;;;;;;;;;;;;;12540751;28;20724;-77
2022/01/17 14:12:54;;;;;;;21.10;15.95;;;;;;;;;;12529166;28;19916;-76
2022/01/17 14:19:19;;;;;;;22.80;18.10;;;;;;;;;;12545774;28;20033;-77
2022/01/17 14:25:23;;;;;;;22.70;18.45;;;;;;;;;;12528594;28;20029;-77
2022/01/17 14:31:33;;;;;;;24.33;19.25;;;;;;;;;;12544837;28;20061;-78
2022/01/17 14:37:39;;;;;;;21.83;17.45;;;;;;;;;;12528493;28;20375;-78
2022/01/17 14:43:41;;;;;;;22.35;17.83;;;;;;;;;;12527753;28;20037;-77
2022/01/17 14:49:45;;;;;;;25.52;19.67;;;;;;;;;;12527614;28;20052;-77
2022/01/17 15:08:16;;;;;;;24.60;17.85;;;;;;;;;;12541578;28;20497;-76
2022/01/17 15:14:20;;;;;;;25.85;20.67;;;;;;;;;;12526082;28;20045;-76
2022/01/17 15:20:24;;;;;;;33.42;22.90;;;;;;;;;;12525737;28;20041;-76
2022/01/17 15:26:28;;;;;;;28.38;21.85;;;;;;;;;;12526224;28;20025;-77
2022/01/17 15:32:30;;;;;;;30.65;21.88;;;;;;;;;;12526068;28;20040;-76
2022/01/17 15:38:34;;;;;;;31.67;23.85;;;;;;;;;;12526879;28;20048;-77
2022/01/17 15:44:38;;;;;;;28.10;21.58;;;;;;;;;;12542734;28;20021;-78
2022/01/17 15:50:41;;;;;;;36.63;28.95;;;;;;;;;;12542365;28;20045;-78
2022/01/17 15:56:44;;;;;;;36.53;27.15;;;;;;;;;;12528462;28;20033;-78
2022/01/17 16:02:46;;;;;;;41.03;32.20;;;;;;;;;;12529810;28;20033;-78
2022/01/17 16:08:49;;;;;;;;;;;;;;;;;;12547587;28;20056;-77
2022/01/17 16:14:51;;;;;;;42.50;33.28;;;;;;;;;;12525647;28;19916;-77
2022/01/17 16:20:54;;;;;;;42.55;35.97;;;;;;;;;;12552043;28;20516;-76
2022/01/17 16:26:57;;;;;;;45.60;36.50;;;;;;;;;;12552825;28;20398;-76
2022/01/17 16:33:04;;;;;;;44.78;35.03;;;;;;;;;;12551938;28;20051;-76
2022/01/17 16:39:09;;;;;;;43.53;37.30;;;;;;;;;;12536506;28;20051;-75
2022/01/17 16:45:12;;;;;;;46.67;36.47;;;;;;;;;;12551644;28;20036;-76
2022/01/17 16:51:17;;;;;;;29.77;26.08;;;;;;;;;;12550222;28;20052;-76
2022/01/17 16:57:25;;;;;;;33.30;28.33;;;;;;;;;;12534579;28;20457;-77
2022/01/17 17:03:36;;;;;;;37.45;31.23;;;;;;;;;;12550404;28;20275;-76
2022/01/17 17:09:43;;;;;;;30.50;25.70;;;;;;;;;;12550028;28;20416;-76
2022/01/17 17:15:46;;;;;;;28.83;23.70;;;;;;;;;;12532635;28;20036;-76
2022/01/17 17:21:48;;;;;;;;;;;;;;;;;;12534850;28;20041;-75
2022/01/17 17:27:51;;;;;;;29.73;26.63;;;;;;;;;;12533600;28;19919;-77
2022/01/17 17:33:56;;;;;;;32.97;28.23;;;;;;;;;;12549336;28;20047;-77
2022/01/17 17:40:00;;;;;;;28.77;25.63;;;;;;;;;;12531802;28;20063;-78
2022/01/17 17:46:07;;;;;;;28.70;25.50;;;;;;;;;;12548026;28;20029;-78
2022/01/17 17:52:11;;;;;;;43.20;37.05;;;;;;;;;;12531554;28;20067;-77
2022/01/17 17:58:18;;;;;;;31.00;27.73;;;;;;;;;;12530140;28;20037;-76
2022/01/17 18:04:29;;;;;;;29.33;26.25;;;;;;;;;;12532231;28;20037;-76
2022/01/17 18:10:34;;;;;;;28.60;24.90;;;;;;;;;;12530812;28;20057;-76
2022/01/17 18:16:44;;;;;;;14.23;12.55;;;;;;;;;;12547454;28;20029;-77
2022/01/17 18:22:52;;;;;;;31.83;25.25;;;;;;;;;;12549176;28;20037;-77
2022/01/17 18:28:59;;;;;;;24.92;22.27;;;;;;;;;;12550468;28;20040;-77
2022/01/17 18:35:03;;;;;;;27.88;25.00;;;;;;;;;;12530859;28;20033;-77
2022/01/17 18:41:11;;;;;;;27.13;24.10;;;;;;;;;;12530091;28;20048;-77
2022/01/17 18:47:14;;;;;;;25.30;22.30;;;;;;;;;;12530328;28;20021;-75
2022/01/17 18:53:21;;;;;;;45.10;35.90;;;;;;;;;;12529467;28;20045;-75
2022/01/17 18:59:29;;;;;;;42.97;29.00;;;;;;;;;;12531066;28;20041;-76
2022/01/17 19:05:38;;;;;;;26.95;24.10;;;;;;;;;;12529383;28;20511;-76
2022/01/17 19:11:50;;;;;;;28.60;25.60;;;;;;;;;;12545671;28;20049;-77
2022/01/17 19:18:21;;;;;;;31.42;26.05;;;;;;;;;;12545289;28;20037;-77
2022/01/17 19:24:19;;;;;;;42.45;34.25;;;;;;;;;;12544691;28;20029;-76
2022/01/17 19:30:25;;;;;;;35.58;30.48;;;;;;;;;;12545556;28;20491;-77
2022/01/17 19:36:37;;;;;;;32.10;27.23;;;;;;;;;;12545656;28;20043;-76
2022/01/17 19:42:41;;;;;;;26.42;22.85;;;;;;;;;;12529543;28;20041;-76
2022/01/17 19:48:44;;;;;;;23.10;20.40;;;;;;;;;;12545265;28;20029;-78
2022/01/17 19:54:48;;;;;;;30.58;23.80;;;;;;;;;;12553389;28;20032;-76
2022/01/17 20:00:52;;;;;;;26.20;23.50;;;;;;;;;;12553802;28;20044;-76
2022/01/17 20:06:56;;;;;;;;;;;;;;;;;;12538142;28;20043;-76
2022/01/17 20:13:04;;;;;;;27.45;23.73;;;;;;;;;;12488714;28;19917;-77
2022/01/17 20:19:12;;;;;;;22.45;20.08;;;;;;;;;;12488208;28;20033;-76
2022/01/17 20:25:17;;;;;;;21.90;18.10;;;;;;;;;;12503986;28;20395;-78
2022/01/17 20:31:21;;;;;;;21.98;19.65;;;;;;;;;;12505375;28;20041;-77
2022/01/17 20:37:25;;;;;;;35.30;27.33;;;;;;;;;;12486735;28;20041;-76
2022/01/17 20:43:35;;;;;;;38.85;29.55;;;;;;;;;;12488202;28;20041;-77
2022/01/17 20:49:40;;;;;;;38.05;30.45;;;;;;;;;;12503401;28;20034;-77
2022/01/17 20:55:51;;;;;;;38.42;32.38;;;;;;;;;;12490534;28;20036;-76
2022/01/17 21:02:07;;;;;;;35.42;30.02;;;;;;;;;;12502663;28;20030;-76
2022/01/17 21:08:15;;;;;;;40.97;33.40;;;;;;;;;;12498650;28;20052;-75
2022/01/17 21:14:18;;;;;;;41.80;37.10;;;;;;;;;;12540417;28;20041;-75
2022/01/17 21:20:24;;;;;;;34.60;30.85;;;;;;;;;;12534441;28;20048;-76
2022/01/17 21:26:40;;;;;;;48.35;39.50;;;;;;;;;;12534184;28;20486;-76
2022/01/17 21:32:44;;;;;;;46.70;37.53;;;;;;;;;;12551284;28;20397;-76
2022/01/17 21:38:48;;;;;;;54.85;40.40;;;;;;;;;;12549727;28;20037;-77
2022/01/17 21:44:55;;;;;;;47.15;36.45;;;;;;;;;;12533044;28;20504;-76
2022/01/17 21:51:00;;;;;;;52.65;42.17;;;;;;;;;;12533061;28;20393;-77
2022/01/17 21:57:15;;;;;;;42.28;35.95;;;;;;;;;;12533711;28;20036;-77
2022/01/17 22:03:28;;;;;;;33.83;29.63;;;;;;;;;;12532794;28;20393;-76
2022/01/17 22:09:34;;;;;;;26.63;23.10;;;;;;;;;;12549589;28;20301;-77
2022/01/17 22:15:40;;;;;;;45.72;34.80;;;;;;;;;;12548915;28;20037;-76
2022/01/17 22:21:51;;;;;;;30.52;24.80;;;;;;;;;;12532686;28;20036;-75
2022/01/17 22:27:58;;;;;;;46.42;35.35;;;;;;;;;;12531149;28;20040;-76
2022/01/17 22:34:22;;;;;;;39.88;30.33;;;;;;;;;;12533273;28;20068;-77
2022/01/17 22:40:29;;;;;;;39.33;31.30;;;;;;;;;;12531372;28;20044;-77
2022/01/17 22:46:39;;;;;;;63.15;48.33;;;;;;;;;;12531836;28;20040;-76
2022/01/17 22:52:46;;;;;;;53.83;41.78;;;;;;;;;;12547954;28;20406;-76
2022/01/17 22:58:53;;;;;;;35.20;27.90;;;;;;;;;;12531471;28;20048;-76
2022/01/17 23:05:02;;;;;;;39.35;31.52;;;;;;;;;;12550383;28;20358;-77
2022/01/17 23:11:41;;;;;;;71.10;53.72;;;;;;;;;;12553728;28;20079;-76
2022/01/17 23:18:01;;;;;;;67.97;52.38;;;;;;;;;;12549341;28;20048;-75
2022/01/17 23:24:17;;;;;;;67.80;53.10;;;;;;;;;;12532489;28;20041;-76
2022/01/17 23:33:54;;;;;;;68.22;53.05;;;;;;;;;;12542068;28;20041;-76
2022/01/17 23:37:18;;;;;;;56.13;45.67;;;;;;;;;;12554470;28;20045;-77
2022/01/17 23:43:22;;;;;;;57.50;45.17;;;;;;;;;;12537933;28;20037;-76
2022/01/17 23:49:28;;;;;;;72.53;55.72;;;;;;;;;;12538571;28;20052;-76
2022/01/17 23:55:35;;;;;;;62.75;49.17;;;;;;;;;;12538617;28;20056;-76
